createdAt,value
2019-04-06T00:00:10.352Z,21.20
2019-04-06T00:02:42.061Z,20.80
2019-04-06T00:05:11.284Z,21.57
2019-04-06T00:07:40.050Z,21.83
2019-04-06T00:10:09.564Z,23.13
2019-04-06T00:12:38.316Z,21.97
2019-04-06T00:15:12.678Z,21.97
2019-04-06T00:17:41.386Z,22.40
2019-04-06T00:20:10.739Z,22.60
2019-04-06T00:22:39.459Z,23.33
2019-04-06T00:25:08.672Z,22.23
2019-04-06T00:27:37.418Z,22.73
2019-04-06T00:30:09.163Z,21.63
2019-04-06T00:32:45.522Z,21.87
2019-04-06T00:35:14.228Z,23.50
2019-04-06T00:37:42.936Z,23.17
2019-04-06T00:40:11.755Z,22.97
2019-04-06T00:42:40.453Z,23.20
2019-04-06T00:45:09.503Z,24.17
2019-04-06T00:47:38.211Z,23.57
2019-04-06T00:50:07.616Z,22.37
2019-04-06T00:52:36.385Z,23.20
2019-04-06T00:55:06.117Z,23.40
2019-04-06T00:57:34.910Z,23.37
2019-04-06T01:00:04.288Z,22.73
2019-04-06T01:02:32.999Z,22.13
2019-04-06T01:05:08.189Z,24.47
2019-04-06T01:07:36.896Z,24.17
2019-04-06T01:10:08.636Z,23.80
2019-04-06T01:12:37.336Z,24.77
2019-04-06T01:15:07.653Z,24.40
2019-04-06T01:17:36.414Z,24.20
2019-04-06T01:20:06.312Z,25.43
2019-04-06T01:22:35.044Z,25.63
2019-04-06T01:25:08.592Z,26.63
2019-04-06T01:27:37.300Z,24.20
2019-04-06T01:30:09.999Z,25.30
2019-04-06T01:32:38.798Z,25.07
2019-04-06T01:35:07.496Z,25.97
2019-04-06T01:37:36.259Z,25.77
2019-04-06T01:40:09.716Z,25.13
2019-04-06T01:42:38.425Z,25.30
2019-04-06T01:45:08.700Z,25.63
2019-04-06T01:47:37.388Z,25.83
2019-04-06T01:50:08.107Z,28.03
2019-04-06T01:52:36.831Z,27.03
2019-04-06T01:55:06.641Z,29.93
2019-04-06T01:57:35.443Z,28.77
2019-04-06T02:00:06.216Z,27.23
2019-04-06T02:02:36.488Z,26.43
2019-04-06T02:05:08.586Z,26.10
2019-04-06T02:07:37.297Z,26.87
2019-04-06T02:10:08.631Z,25.97
2019-04-06T02:12:37.332Z,24.70
2019-04-06T02:15:07.844Z,25.03
2019-04-06T02:17:36.557Z,24.03
2019-04-06T02:20:06.311Z,24.27
2019-04-06T02:22:35.017Z,24.93
2019-04-06T02:25:04.022Z,25.23
2019-04-06T02:27:32.741Z,26.17
2019-04-06T02:30:12.292Z,26.40
2019-04-06T02:32:45.572Z,27.00
2019-04-06T02:35:30.836Z,27.47
2019-04-06T02:38:10.125Z,27.83
2019-04-06T02:40:46.509Z,29.43
2019-04-06T02:43:16.753Z,29.13
2019-04-06T02:45:45.460Z,28.43
2019-04-06T02:48:14.171Z,29.33
2019-04-06T02:50:42.922Z,28.27
2019-04-06T02:53:11.684Z,29.33
2019-04-06T02:55:40.499Z,28.93
2019-04-06T02:58:09.611Z,29.80
2019-04-06T03:00:38.339Z,29.50
2019-04-06T03:03:07.041Z,28.87
2019-04-06T03:05:35.904Z,29.47
2019-04-06T03:08:04.609Z,27.93
2019-04-06T03:10:33.384Z,27.10
2019-04-06T03:13:10.292Z,26.67
2019-04-06T03:15:38.950Z,27.13
2019-04-06T03:18:12.665Z,27.90
2019-04-06T03:20:41.369Z,26.43
2019-04-06T03:23:12.913Z,31.70
2019-04-06T03:25:41.795Z,30.00
2019-04-06T03:28:10.591Z,27.30
2019-04-06T03:30:39.298Z,27.10
2019-04-06T03:33:08.011Z,32.93
2019-04-06T03:35:36.717Z,38.80
2019-04-06T03:38:11.555Z,28.70
2019-04-06T03:40:40.245Z,26.80
2019-04-06T03:43:13.986Z,29.73
2019-04-06T03:45:42.700Z,27.33
2019-04-06T03:48:11.459Z,27.30
2019-04-06T03:50:40.128Z,26.57
2019-04-06T03:53:09.041Z,25.23
2019-04-06T03:55:37.944Z,26.77
2019-04-06T03:58:06.653Z,26.57
2019-04-06T04:00:35.377Z,25.63
2019-04-06T04:03:07.443Z,26.63
2019-04-06T04:05:36.144Z,25.90
2019-04-06T04:08:12.203Z,25.13
2019-04-06T04:10:41.208Z,26.37
2019-04-06T04:13:10.146Z,40.73
2019-04-06T04:15:39.292Z,38.10
2019-04-06T04:18:08.287Z,31.83
2019-04-06T04:20:37.076Z,31.17
2019-04-06T04:23:05.758Z,30.50
2019-04-06T04:25:34.473Z,26.90
2019-04-06T04:28:08.454Z,30.93
2019-04-06T04:30:37.232Z,26.97
2019-04-06T04:33:10.120Z,28.20
2019-04-06T04:35:38.829Z,29.07
2019-04-06T04:38:07.549Z,26.97
2019-04-06T04:40:36.366Z,29.57
2019-04-06T04:43:11.874Z,32.07
2019-04-06T04:45:40.620Z,29.67
2019-04-06T04:48:09.323Z,28.03
2019-04-06T04:50:38.032Z,26.80
2019-04-06T04:53:11.699Z,26.03
2019-04-06T04:55:40.446Z,34.40
2019-04-06T04:58:11.705Z,49.63
2019-04-06T05:00:41.360Z,41.20
2019-04-06T05:03:10.202Z,43.40
2019-04-06T05:05:38.967Z,49.67
2019-04-06T05:08:07.676Z,39.83
2019-04-06T05:10:36.421Z,37.10
2019-04-06T05:13:05.127Z,33.17
2019-04-06T05:15:48.592Z,45.33
2019-04-06T05:18:17.313Z,41.37
2019-04-06T05:20:46.020Z,38.63
2019-04-06T05:23:14.738Z,39.50
2019-04-06T05:25:43.453Z,47.43
2019-04-06T05:28:12.194Z,47.17
2019-04-06T05:30:40.925Z,39.67
2019-04-06T05:33:09.805Z,57.93
2019-04-06T05:35:38.522Z,35.97
2019-04-06T05:38:07.246Z,35.77
2019-04-06T05:40:35.994Z,39.17
2019-04-06T05:43:11.729Z,30.27
2019-04-06T05:45:40.433Z,28.37
2019-04-06T05:48:11.531Z,29.10
2019-04-06T05:50:40.238Z,28.03
2019-04-06T05:53:12.243Z,31.63
2019-04-06T05:55:40.909Z,33.40
2019-04-06T05:58:10.666Z,31.33
2019-04-06T06:00:41.060Z,33.87
2019-04-06T06:03:11.150Z,33.47
2019-04-06T06:05:41.169Z,37.87
2019-04-06T06:08:09.998Z,32.67
2019-04-06T06:10:38.737Z,36.97
2019-04-06T06:13:10.188Z,35.07
2019-04-06T06:15:38.896Z,35.50
2019-04-06T06:18:10.832Z,35.17
2019-04-06T06:20:39.558Z,36.07
2019-04-06T06:23:08.271Z,34.73
2019-04-06T06:25:37.275Z,35.83
2019-04-06T06:28:14.420Z,33.00
2019-04-06T06:30:36.556Z,39.23
2019-04-06T06:33:05.278Z,31.57
2019-04-06T06:35:34.026Z,32.30
2019-04-06T06:38:11.625Z,33.33
2019-04-06T06:40:40.329Z,31.77
2019-04-06T06:43:14.745Z,37.90
2019-04-06T06:45:43.633Z,32.70
2019-04-06T06:48:12.318Z,58.70
2019-04-06T06:50:41.045Z,31.10
2019-04-06T06:53:09.768Z,45.83
2019-04-06T06:55:38.529Z,31.57
2019-04-06T06:58:07.242Z,47.20
2019-04-06T07:00:35.958Z,40.47
2019-04-06T07:03:12.169Z,37.70
2019-04-06T07:05:40.883Z,36.97
2019-04-06T07:08:11.786Z,39.17
2019-04-06T07:10:40.476Z,47.93
2019-04-06T07:13:09.194Z,32.03
2019-04-06T07:15:37.956Z,32.97
2019-04-06T07:18:06.672Z,41.90
2019-04-06T07:20:35.382Z,32.67
2019-04-06T07:23:12.882Z,37.43
2019-04-06T07:25:41.593Z,32.40
2019-04-06T07:28:13.340Z,32.57
2019-04-06T07:30:42.304Z,32.57
2019-04-06T07:33:11.116Z,59.13
2019-04-06T07:35:39.831Z,35.50
2019-04-06T07:38:08.537Z,31.07
2019-04-06T07:40:37.369Z,30.17
2019-04-06T07:43:06.233Z,37.63
2019-04-06T07:45:34.966Z,30.37
2019-04-06T07:48:10.175Z,34.77
2019-04-06T07:50:38.887Z,31.33
2019-04-06T07:53:07.594Z,35.73
2019-04-06T07:55:36.546Z,41.00
2019-04-06T07:58:05.259Z,33.47
2019-04-06T08:00:33.980Z,31.00
2019-04-06T08:03:08.388Z,30.50
2019-04-06T08:05:37.069Z,32.43
2019-04-06T08:08:10.419Z,30.30
2019-04-06T08:10:39.145Z,27.33
2019-04-06T08:13:07.847Z,32.90
2019-04-06T08:15:36.577Z,28.00
2019-04-06T08:18:05.286Z,27.77
2019-04-06T08:20:34.043Z,28.03
2019-04-06T08:23:02.761Z,33.23
2019-04-06T08:25:31.477Z,28.63
2019-04-06T08:28:00.274Z,27.30
2019-04-06T08:30:28.990Z,28.00
2019-04-06T08:32:57.698Z,25.80
2019-04-06T08:35:26.906Z,28.87
2019-04-06T08:37:55.717Z,27.27
2019-04-06T08:40:24.479Z,28.90
2019-04-06T08:42:53.990Z,27.30
2019-04-06T08:45:22.699Z,26.00
2019-04-06T08:47:51.513Z,28.17
2019-04-06T08:50:20.342Z,29.50
2019-04-06T08:52:49.066Z,27.03
2019-04-06T08:55:17.996Z,27.03
2019-04-06T08:57:46.682Z,26.90
2019-04-06T09:00:16.640Z,27.77
2019-04-06T09:02:45.428Z,26.83
2019-04-06T09:05:14.240Z,28.07
2019-04-06T09:07:42.971Z,27.83
2019-04-06T09:10:11.708Z,27.87
2019-04-06T09:12:40.475Z,27.20
2019-04-06T09:15:10.297Z,26.50
2019-04-06T09:17:39.211Z,27.57
2019-04-06T09:20:09.944Z,29.33
2019-04-06T09:22:38.643Z,25.80
2019-04-06T09:25:11.965Z,28.93
2019-04-06T09:27:40.702Z,27.63
2019-04-06T09:30:10.479Z,27.30
2019-04-06T09:32:39.186Z,29.10
2019-04-06T09:35:08.029Z,29.30
2019-04-06T09:37:37.036Z,28.97
2019-04-06T09:40:07.350Z,26.40
2019-04-06T09:42:36.362Z,30.80
2019-04-06T09:45:25.517Z,30.97
2019-04-06T09:47:55.802Z,26.67
2019-04-06T09:50:35.100Z,28.23
2019-04-06T09:53:05.507Z,27.40
2019-04-06T09:55:41.879Z,25.40
2019-04-06T09:58:30.419Z,26.20
2019-04-06T10:01:16.800Z,28.97
2019-04-06T10:03:49.928Z,28.13
2019-04-06T10:06:38.314Z,27.47
2019-04-06T10:09:12.977Z,25.33
2019-04-06T10:11:46.324Z,27.53
2019-04-06T10:14:19.406Z,27.17
2019-04-06T10:17:09.767Z,31.90
2019-04-06T10:19:49.245Z,25.83
2019-04-06T10:22:19.596Z,32.10
2019-04-06T10:24:53.116Z,27.17
2019-04-06T10:27:26.439Z,33.67
2019-04-06T10:30:13.420Z,28.77
2019-04-06T10:32:44.107Z,28.90
2019-04-06T10:35:17.336Z,27.70
2019-04-06T10:37:54.069Z,26.67
2019-04-06T10:40:27.227Z,29.30
2019-04-06T10:43:00.591Z,28.93
2019-04-06T10:45:33.561Z,27.67
2019-04-06T10:48:13.594Z,28.33
2019-04-06T10:50:43.871Z,27.90
2019-04-06T10:53:14.497Z,27.47
2019-04-06T10:55:53.821Z,26.50
2019-04-06T10:58:24.325Z,27.97
2019-04-06T11:00:57.794Z,30.50
2019-04-06T11:03:34.419Z,28.23
2019-04-06T11:06:09.393Z,28.60
2019-04-06T11:08:43.024Z,29.53
2019-04-06T11:11:20.619Z,27.07
2019-04-06T11:14:07.623Z,28.63
2019-04-06T11:16:54.294Z,28.70
2019-04-06T11:19:41.001Z,30.27
2019-04-06T11:22:23.381Z,29.50
2019-04-06T11:24:59.466Z,28.97
2019-04-06T11:27:46.313Z,33.90
2019-04-06T11:30:32.944Z,38.90
2019-04-06T11:33:06.102Z,30.23
2019-04-06T11:35:39.141Z,30.17
2019-04-06T11:38:25.693Z,27.33
2019-04-06T11:41:09.223Z,35.97
2019-04-06T11:43:51.599Z,27.60
2019-04-06T11:46:40.165Z,31.80
2019-04-06T11:49:11.177Z,39.73
2019-04-06T11:51:50.434Z,37.40
2019-04-06T11:54:26.558Z,32.37
2019-04-06T11:57:08.806Z,30.47
2019-04-06T11:59:39.183Z,29.37
2019-04-06T12:02:09.459Z,31.13
2019-04-06T12:04:39.744Z,30.17
2019-04-06T12:07:10.215Z,34.43
2019-04-06T12:09:49.678Z,56.70
2019-04-06T12:12:19.968Z,27.30
2019-04-06T12:14:50.523Z,26.80
2019-04-06T12:17:36.862Z,28.83
2019-04-06T12:20:20.738Z,28.33
2019-04-06T12:23:07.365Z,27.10
2019-04-06T12:25:40.621Z,27.20
2019-04-06T12:28:16.989Z,26.13
2019-04-06T12:30:53.370Z,31.47
2019-04-06T12:33:23.647Z,27.07
2019-04-06T12:36:12.145Z,26.50
2019-04-06T12:38:57.479Z,27.37
2019-04-06T12:41:28.115Z,27.90
2019-04-06T12:43:58.799Z,26.63
2019-04-06T12:46:31.735Z,26.80
2019-04-06T12:49:18.130Z,26.70
2019-04-06T12:51:48.415Z,31.40
2019-04-06T12:54:34.974Z,26.27
2019-04-06T12:57:23.327Z,35.40
2019-04-06T12:59:59.566Z,26.07
2019-04-06T13:02:32.909Z,25.80
2019-04-06T13:05:19.322Z,95.90
2019-04-06T13:07:49.619Z,31.53
2019-04-06T13:10:36.153Z,23.17
2019-04-06T13:13:24.413Z,27.30
2019-04-06T13:16:00.774Z,22.50
2019-04-06T13:18:39.838Z,20.37
2019-04-06T13:21:28.193Z,20.80
2019-04-06T13:24:08.918Z,27.17
2019-04-06T13:26:42.177Z,21.60
2019-04-06T13:29:12.466Z,20.93
2019-04-06T13:31:46.130Z,21.90
2019-04-06T13:34:16.935Z,19.97
2019-04-06T13:36:47.550Z,19.60
2019-04-06T13:39:20.808Z,21.07
2019-04-06T13:42:08.894Z,21.33
2019-04-06T13:44:45.050Z,20.83
2019-04-06T13:47:21.551Z,20.20
2019-04-06T13:49:57.978Z,21.70
2019-04-06T13:52:28.671Z,25.30
2019-04-06T13:54:58.972Z,19.63
2019-04-06T13:57:29.254Z,20.67
2019-04-06T14:00:11.358Z,18.90
2019-04-06T14:02:41.654Z,19.33
2019-04-06T14:05:20.944Z,24.73
2019-04-06T14:08:09.615Z,31.10
2019-04-06T14:10:45.683Z,30.33
2019-04-06T14:13:15.958Z,28.93
2019-04-06T14:16:09.352Z,30.83
2019-04-06T14:18:42.662Z,33.80
2019-04-06T14:21:12.942Z,33.60
2019-04-06T14:23:46.301Z,31.13
2019-04-06T14:26:22.335Z,30.70
2019-04-06T14:29:10.619Z,41.23
2019-04-06T14:31:57.044Z,33.03
2019-04-06T14:34:43.738Z,35.30
2019-04-06T14:37:16.761Z,38.83
2019-04-06T14:39:47.057Z,33.77
2019-04-06T14:42:33.972Z,32.63
2019-04-06T14:45:21.127Z,29.30
2019-04-06T14:47:51.636Z,31.33
2019-04-06T14:50:21.917Z,31.00
2019-04-06T14:52:52.209Z,29.20
2019-04-06T14:55:22.507Z,31.37
2019-04-06T14:58:09.393Z,31.60
2019-04-06T15:00:43.011Z,33.70
2019-04-06T15:03:13.352Z,27.17
2019-04-06T15:05:59.756Z,35.20
2019-04-06T15:08:36.165Z,33.80
2019-04-06T15:11:15.387Z,41.67
2019-04-06T15:13:57.816Z,52.90
2019-04-06T15:16:30.871Z,53.97
2019-04-06T15:19:03.911Z,56.47
2019-04-06T15:21:49.210Z,92.83
2019-04-06T15:24:19.483Z,96.47
2019-04-06T15:27:12.377Z,118.50
2019-04-06T15:29:45.709Z,80.23
2019-04-06T15:32:19.156Z,56.10
2019-04-06T15:34:49.561Z,54.77
2019-04-06T15:37:22.583Z,50.10
2019-04-06T15:39:56.183Z,54.20
2019-04-06T15:42:38.603Z,61.50
2019-04-06T15:45:14.841Z,86.17
2019-04-06T15:48:01.576Z,65.97
2019-04-06T15:50:38.024Z,50.93
2019-04-06T15:53:26.700Z,45.37
2019-04-06T15:56:09.375Z,57.20
2019-04-06T15:58:39.645Z,164.03
2019-04-06T16:01:09.927Z,93.77
2019-04-06T16:03:40.292Z,85.90
2019-04-06T16:06:10.690Z,76.60
2019-04-06T16:08:40.986Z,63.90
2019-04-06T16:11:27.750Z,92.87
2019-04-06T16:13:58.128Z,58.27
2019-04-06T16:16:31.884Z,66.70
2019-04-06T16:19:09.222Z,52.63
2019-04-06T16:21:39.490Z,45.20
2019-04-06T16:24:26.487Z,38.77
2019-04-06T16:27:02.930Z,44.17
2019-04-06T16:29:33.257Z,44.20
2019-04-06T16:32:11.533Z,48.40
2019-04-06T16:34:35.570Z,51.93
2019-04-06T16:37:16.907Z,60.30
2019-04-06T16:39:47.197Z,80.30
2019-04-06T16:42:33.849Z,44.37
2019-04-06T16:45:04.224Z,30.80
2019-04-06T16:47:34.731Z,29.87
2019-04-06T16:50:23.221Z,31.47
2019-04-06T16:53:05.466Z,30.07
2019-04-06T16:55:45.766Z,30.53
2019-04-06T16:58:21.842Z,30.60
2019-04-06T17:00:55.113Z,29.50
2019-04-06T17:03:40.249Z,48.53
2019-04-06T17:06:10.589Z,48.10
2019-04-06T17:08:41.258Z,42.33
2019-04-06T17:11:14.852Z,43.10
2019-04-06T17:13:45.339Z,42.30
2019-04-06T17:16:31.829Z,40.40
2019-04-06T17:19:08.384Z,38.73
2019-04-06T17:21:53.927Z,36.43
2019-04-06T17:24:36.534Z,32.83
2019-04-06T17:27:09.410Z,30.30
2019-04-06T17:29:45.981Z,30.43
2019-04-06T17:32:19.335Z,38.80
2019-04-06T17:35:14.773Z,70.03
2019-04-06T17:37:51.163Z,37.87
2019-04-06T17:40:36.702Z,46.83
2019-04-06T17:43:23.144Z,58.80
2019-04-06T17:45:56.549Z,54.57
2019-04-06T17:48:39.127Z,48.47
2019-04-06T17:51:25.822Z,59.03
2019-04-06T17:54:14.441Z,45.63
2019-04-06T17:56:44.820Z,42.23
2019-04-06T17:59:31.326Z,49.90
2019-04-06T18:02:20.347Z,51.23
2019-04-06T18:04:59.731Z,50.70
2019-04-06T18:07:35.728Z,47.27
2019-04-06T18:10:12.888Z,76.47
2019-04-06T18:12:46.185Z,42.13
2019-04-06T18:15:15.454Z,35.97
2019-04-06T18:17:44.520Z,51.63
2019-04-06T18:20:13.209Z,47.03
2019-04-06T18:22:41.982Z,47.70
2019-04-06T18:25:10.710Z,53.67
2019-04-06T18:27:39.630Z,44.57
2019-04-06T18:30:11.551Z,33.83
2019-04-06T18:32:41.835Z,42.43
2019-04-06T18:35:14.267Z,46.70
2019-04-06T18:37:56.874Z,51.27
2019-04-06T18:40:27.406Z,42.10
2019-04-06T18:42:56.303Z,49.50
2019-04-06T18:45:25.790Z,60.53
2019-04-06T18:47:54.637Z,116.00
2019-04-06T18:50:33.299Z,52.77
2019-04-06T18:52:53.950Z,46.73
2019-04-06T18:55:22.708Z,20.10
2019-04-06T18:57:51.595Z,37.80
2019-04-06T19:00:20.792Z,21.50
2019-04-06T19:02:49.549Z,18.60
2019-04-06T19:05:18.440Z,20.53
2019-04-06T19:07:47.226Z,19.60
2019-04-06T19:10:16.394Z,21.33
2019-04-06T19:12:45.150Z,24.67
2019-04-06T19:15:13.883Z,25.67
2019-04-06T19:17:42.921Z,21.10
2019-04-06T19:20:12.681Z,20.73
2019-04-06T19:22:41.407Z,23.60
2019-04-06T19:25:11.736Z,21.00
2019-04-06T19:27:40.687Z,21.87
2019-04-06T19:30:11.391Z,21.77
2019-04-06T19:32:40.156Z,20.23
2019-04-06T19:35:16.914Z,15.67
2019-04-06T19:37:45.689Z,17.63
2019-04-06T19:40:16.208Z,13.20
2019-04-06T19:42:44.921Z,16.60
2019-04-06T19:45:13.854Z,10.57
2019-04-06T19:47:42.567Z,10.20
2019-04-06T19:50:12.963Z,11.87
2019-04-06T19:52:41.693Z,10.33
2019-04-06T19:55:14.016Z,10.70
2019-04-06T19:57:42.810Z,9.10
2019-04-06T20:00:12.140Z,10.33
2019-04-06T20:02:41.374Z,10.90
2019-04-06T20:05:11.783Z,10.50
2019-04-06T20:07:40.972Z,11.30
2019-04-06T20:10:11.652Z,11.67
2019-04-06T20:12:40.571Z,13.93
2019-04-06T20:15:09.490Z,14.07
2019-04-06T20:17:38.988Z,12.83
2019-04-06T20:20:08.023Z,13.87
2019-04-06T20:22:36.782Z,12.33
2019-04-06T20:25:08.500Z,12.37
2019-04-06T20:27:37.244Z,14.70
2019-04-06T20:30:11.660Z,17.23
2019-04-06T20:32:40.398Z,11.73
2019-04-06T20:35:14.620Z,11.33
2019-04-06T20:37:43.433Z,11.60
2019-04-06T20:40:12.828Z,11.33
2019-04-06T20:42:41.671Z,10.90
2019-04-06T20:45:10.601Z,12.10
2019-04-06T20:47:39.562Z,12.00
2019-04-06T20:50:09.273Z,11.60
2019-04-06T20:52:37.953Z,11.77
2019-04-06T20:55:09.234Z,11.17
2019-04-06T20:57:38.398Z,10.77
2019-04-06T21:00:11.018Z,11.50
2019-04-06T21:02:39.746Z,10.37
2019-04-06T21:05:09.696Z,10.47
2019-04-06T21:07:38.420Z,10.07
2019-04-06T21:10:09.141Z,10.00
2019-04-06T21:12:37.861Z,10.20
2019-04-06T21:15:17.045Z,10.37
2019-04-06T21:17:39.867Z,10.10
2019-04-06T21:20:09.862Z,10.97
2019-04-06T21:22:38.626Z,10.03
2019-04-06T21:25:08.407Z,10.70
2019-04-06T21:27:37.261Z,10.93
2019-04-06T21:30:10.328Z,10.80
2019-04-06T21:32:39.753Z,10.60
2019-04-06T21:35:08.649Z,10.80
2019-04-06T21:37:38.301Z,10.87
2019-04-06T21:40:10.159Z,10.53
2019-04-06T21:42:38.911Z,10.37
2019-04-06T21:45:09.462Z,10.43
2019-04-06T21:47:38.721Z,9.80
2019-04-06T21:50:08.123Z,10.00
2019-04-06T21:52:37.369Z,9.87
2019-04-06T21:55:11.205Z,10.70
2019-04-06T21:57:40.466Z,11.07
2019-04-06T22:00:11.231Z,11.30
2019-04-06T22:02:40.219Z,11.53
2019-04-06T22:05:09.453Z,10.97
2019-04-06T22:07:47.188Z,12.17
2019-04-06T22:10:10.598Z,12.30
2019-04-06T22:12:39.985Z,12.60
2019-04-06T22:15:11.351Z,12.57
2019-04-06T22:17:40.079Z,12.27
2019-04-06T22:20:08.796Z,13.50
2019-04-06T22:22:37.840Z,13.07
2019-04-06T22:25:06.552Z,12.10
2019-04-06T22:27:35.275Z,13.00
2019-04-06T22:30:09.980Z,12.77
2019-04-06T22:32:39.300Z,13.33
2019-04-06T22:35:09.229Z,12.53
2019-04-06T22:37:37.942Z,12.50
2019-04-06T22:40:07.505Z,12.80
2019-04-06T22:42:36.713Z,12.53
2019-04-06T22:45:09.235Z,12.67
2019-04-06T22:47:38.283Z,12.23
2019-04-06T22:50:11.941Z,12.47
2019-04-06T22:52:41.210Z,13.40
2019-04-06T22:55:10.353Z,14.13
2019-04-06T22:57:39.076Z,13.87
2019-04-06T23:00:11.554Z,14.30
2019-04-06T23:02:41.839Z,14.93
2019-04-06T23:05:21.200Z,15.60
2019-04-06T23:07:49.919Z,16.47
2019-04-06T23:10:18.625Z,16.47
2019-04-06T23:12:47.500Z,17.00
2019-04-06T23:15:16.474Z,21.67
2019-04-06T23:17:45.166Z,16.30
2019-04-06T23:20:14.018Z,16.63
2019-04-06T23:22:43.373Z,17.70
2019-04-06T23:25:12.202Z,13.73
2019-04-06T23:27:40.926Z,14.70
2019-04-06T23:30:10.576Z,14.63
2019-04-06T23:32:39.931Z,17.20
2019-04-06T23:35:09.190Z,35.43
2019-04-06T23:37:37.938Z,42.03
2019-04-06T23:40:12.503Z,27.23
2019-04-06T23:42:41.222Z,32.40
2019-04-06T23:45:10.301Z,36.07
2019-04-06T23:47:39.027Z,20.83
2019-04-06T23:50:09.395Z,19.10
2019-04-06T23:52:38.200Z,19.83
2019-04-06T23:55:08.437Z,17.80
2019-04-06T23:57:37.280Z,18.60
